createdAt,value
2022-08-17T00:01:52.299Z,98894.03
2022-08-17T00:04:21.592Z,98896.66
2022-08-17T00:06:49.663Z,98894.63
2022-08-17T00:09:18.895Z,98898.31
2022-08-17T00:12:42.133Z,98889.34
2022-08-17T00:14:36.432Z,98886.69
2022-08-17T00:17:04.056Z,98895.50
2022-08-17T00:19:32.812Z,98887.34
2022-08-17T00:22:30.824Z,98889.97
2022-08-17T00:24:48.360Z,98887.72
2022-08-17T00:27:15.613Z,98884.69
2022-08-17T00:29:42.676Z,98890.16
2022-08-17T00:33:12.227Z,98886.50
2022-08-17T00:34:57.708Z,98889.16
2022-08-17T00:37:24.563Z,98887.72
2022-08-17T00:39:51.920Z,98880.97
2022-08-17T00:42:19.620Z,98878.13
2022-08-17T00:44:46.560Z,98879.34
2022-08-17T00:47:13.464Z,98874.41
2022-08-17T00:49:40.647Z,98875.44
2022-08-17T00:52:16.296Z,98868.66
2022-08-17T00:54:49.000Z,98863.97
2022-08-17T00:57:23.048Z,98865.16
2022-08-17T01:00:02.314Z,98870.09
2022-08-17T01:02:42.028Z,98867.81
2022-08-17T01:05:16.281Z,98872.66
2022-08-17T01:07:49.071Z,98870.63
2022-08-17T01:11:00.534Z,98865.88
2022-08-17T01:13:09.580Z,98864.56
2022-08-17T01:15:40.901Z,98873.78
2022-08-17T01:18:10.738Z,98861.00
2022-08-17T01:20:48.406Z,98869.31
2022-08-17T01:23:20.701Z,98864.75
2022-08-17T01:25:52.107Z,98859.16
2022-08-17T01:28:52.510Z,98851.78
2022-08-17T01:31:09.074Z,98855.72
2022-08-17T01:33:37.281Z,98865.41
2022-08-17T01:36:07.431Z,98862.03
2022-08-17T01:38:37.072Z,98867.19
2022-08-17T01:41:12.743Z,98874.28
2022-08-17T01:43:51.197Z,98869.94
2022-08-17T01:46:25.258Z,98870.44
2022-08-17T01:48:53.980Z,98874.16
2022-08-17T01:51:21.824Z,98873.22
2022-08-17T01:53:54.390Z,98872.47
2022-08-17T01:56:25.525Z,98874.94
2022-08-17T01:58:53.455Z,98876.91
2022-08-17T02:01:26.942Z,98881.00
2022-08-17T02:04:00.817Z,98873.69
2022-08-17T02:06:31.343Z,98877.19
2022-08-17T02:09:16.937Z,98882.03
2022-08-17T02:11:46.288Z,98877.94
2022-08-17T02:14:14.153Z,98872.22
2022-08-17T02:16:43.026Z,98880.75
2022-08-17T02:19:14.793Z,98879.53
2022-08-17T02:21:45.312Z,98879.88
2022-08-17T02:24:58.279Z,98878.13
2022-08-17T02:27:07.467Z,98875.34
2022-08-17T02:29:34.402Z,98871.66
2022-08-17T02:32:01.433Z,98880.22
2022-08-17T02:34:29.115Z,98879.88
2022-08-17T02:36:56.038Z,98876.69
2022-08-17T02:39:24.259Z,98875.34
2022-08-17T02:42:01.162Z,98880.50
2022-08-17T02:44:38.873Z,98878.81
2022-08-17T02:47:09.531Z,98879.34
2022-08-17T02:49:37.668Z,98872.94
2022-08-17T02:52:07.553Z,98878.50
2022-08-17T02:54:39.953Z,98879.16
2022-08-17T02:57:10.129Z,98875.84
2022-08-17T02:59:37.219Z,98883.50
2022-08-17T03:02:04.862Z,98885.00
2022-08-17T03:04:35.110Z,98886.00
2022-08-17T03:07:04.015Z,98885.91
2022-08-17T03:09:31.099Z,98882.63
2022-08-17T03:12:07.748Z,98875.78
2022-08-17T03:14:41.279Z,98874.81
2022-08-17T03:17:08.913Z,98879.88
2022-08-17T03:19:35.980Z,98879.66
2022-08-17T03:22:35.583Z,98878.53
2022-08-17T03:24:55.672Z,98883.25
2022-08-17T03:27:24.519Z,98878.91
2022-08-17T03:29:51.386Z,98882.91
2022-08-17T03:32:18.249Z,98886.53
2022-08-17T03:34:45.263Z,98891.25
2022-08-17T03:37:12.415Z,98887.88
2022-08-17T03:39:39.310Z,98888.00
2022-08-17T03:42:31.317Z,98898.19
2022-08-17T03:45:03.333Z,98895.25
2022-08-17T03:47:30.786Z,98899.09
2022-08-17T03:49:57.659Z,98895.75
2022-08-17T03:52:24.841Z,98889.44
2022-08-17T03:54:51.706Z,98888.88
2022-08-17T03:57:18.811Z,98897.00
2022-08-17T03:59:45.954Z,98895.56
2022-08-17T04:02:21.445Z,98908.69
2022-08-17T04:04:48.865Z,98906.28
2022-08-17T04:07:15.751Z,98906.00
2022-08-17T04:09:42.744Z,98912.56
2022-08-17T04:12:11.162Z,98899.81
2022-08-17T04:14:51.463Z,98910.94
2022-08-17T04:17:23.494Z,98909.03
2022-08-17T04:19:50.449Z,98912.41
2022-08-17T04:22:31.377Z,98917.69
2022-08-17T04:25:07.746Z,98926.44
2022-08-17T04:27:35.326Z,98942.53
2022-08-17T04:30:02.722Z,98954.38
2022-08-17T04:33:04.429Z,98958.94
2022-08-17T04:35:22.467Z,98946.38
2022-08-17T04:37:50.690Z,98959.09
2022-08-17T04:40:19.785Z,98954.31
2022-08-17T04:43:02.117Z,98952.00
2022-08-17T04:45:31.918Z,98958.84
2022-08-17T04:48:01.076Z,98970.88
2022-08-17T04:50:28.361Z,98967.31
2022-08-17T04:52:57.227Z,98962.75
2022-08-17T04:55:24.308Z,98967.66
2022-08-17T04:57:51.464Z,98978.38
2022-08-17T05:00:18.631Z,98974.03
2022-08-17T05:02:50.339Z,98983.78
2022-08-17T05:05:21.638Z,98976.78
2022-08-17T05:07:52.066Z,98975.53
2022-08-17T05:10:18.935Z,98972.25
2022-08-17T05:12:45.887Z,98972.13
2022-08-17T05:15:14.357Z,98986.81
2022-08-17T05:17:41.369Z,98986.50
2022-08-17T05:20:09.874Z,98978.81
2022-08-17T05:22:48.658Z,98972.41
2022-08-17T05:25:19.010Z,98979.53
2022-08-17T05:27:52.872Z,98976.75
2022-08-17T05:30:20.956Z,98979.06
2022-08-17T05:32:54.307Z,98979.50
2022-08-17T05:35:23.053Z,98973.47
2022-08-17T05:37:52.277Z,98985.44
2022-08-17T05:40:22.004Z,98982.53
2022-08-17T05:42:50.351Z,98983.59
2022-08-17T05:45:23.629Z,98989.13
2022-08-17T05:48:08.835Z,98982.63
2022-08-17T05:50:56.600Z,98979.88
2022-08-17T05:53:40.554Z,98991.94
2022-08-17T05:56:29.958Z,98997.66
2022-08-17T05:59:14.712Z,98979.13
2022-08-17T06:01:52.677Z,98964.28
2022-08-17T06:04:37.228Z,98967.50
2022-08-17T06:07:17.173Z,98979.16
2022-08-17T06:10:00.732Z,98985.63
2022-08-17T06:12:47.562Z,98993.28
2022-08-17T06:15:30.512Z,98995.22
2022-08-17T06:18:04.897Z,98993.72
2022-08-17T06:20:46.262Z,98996.00
2022-08-17T06:23:21.122Z,99000.63
2022-08-17T06:25:58.134Z,98999.50
2022-08-17T06:28:36.170Z,98995.16
2022-08-17T06:31:12.184Z,98999.50
2022-08-17T06:33:41.186Z,99003.22
2022-08-17T06:36:20.297Z,99015.78
2022-08-17T06:39:03.043Z,99021.34
2022-08-17T06:41:44.813Z,99021.22
2022-08-17T06:44:50.019Z,99030.53
2022-08-17T06:47:12.279Z,99024.34
2022-08-17T06:49:55.095Z,99026.41
2022-08-17T06:52:46.841Z,99030.50
2022-08-17T06:55:23.647Z,99023.88
2022-08-17T06:57:57.779Z,99009.84
2022-08-17T07:00:31.970Z,99021.38
2022-08-17T07:03:10.028Z,99022.25
2022-08-17T07:05:44.046Z,99020.97
2022-08-17T07:08:19.766Z,99015.41
2022-08-17T07:10:53.076Z,99015.22
2022-08-17T07:13:41.763Z,99014.00
2022-08-17T07:16:19.942Z,99015.38
2022-08-17T07:18:50.602Z,99010.19
2022-08-17T07:21:33.516Z,99006.50
2022-08-17T07:24:32.058Z,98992.19
2022-08-17T07:27:10.488Z,99001.41
2022-08-17T07:29:50.264Z,99002.50
2022-08-17T07:32:24.598Z,99013.78
2022-08-17T07:35:11.464Z,99018.47
2022-08-17T07:37:40.809Z,99011.59
2022-08-17T07:40:20.117Z,99018.72
2022-08-17T07:43:22.249Z,99015.91
2022-08-17T07:45:59.415Z,99006.81
2022-08-17T07:48:27.309Z,99008.13
2022-08-17T07:50:54.220Z,99013.06
2022-08-17T07:53:25.827Z,99012.13
2022-08-17T07:55:54.239Z,99011.19
2022-08-17T07:58:24.118Z,99022.47
2022-08-17T08:01:09.790Z,99016.78
2022-08-17T08:03:44.006Z,99024.59
2022-08-17T08:06:22.233Z,99024.09
2022-08-17T08:08:53.454Z,99031.03
2022-08-17T08:11:33.353Z,99037.19
2022-08-17T08:14:28.653Z,99040.63
2022-08-17T08:17:01.925Z,99043.69
2022-08-17T08:19:30.658Z,99050.91
2022-08-17T08:22:04.853Z,99055.03
2022-08-17T08:25:02.759Z,99058.78
2022-08-17T08:27:49.790Z,99056.41
2022-08-17T08:30:20.263Z,99053.81
2022-08-17T08:33:16.570Z,99041.31
2022-08-17T08:35:50.801Z,99039.88
2022-08-17T08:38:33.405Z,99036.56
2022-08-17T08:41:21.751Z,99037.13
2022-08-17T08:44:07.766Z,99037.03
2022-08-17T08:46:49.088Z,99040.66
2022-08-17T08:50:03.491Z,99041.97
2022-08-17T08:52:54.203Z,99042.63
2022-08-17T08:55:42.034Z,99046.53
2022-08-17T08:58:31.870Z,99052.16
2022-08-17T09:01:18.149Z,99059.25
2022-08-17T09:04:19.929Z,99052.63
2022-08-17T09:07:06.411Z,99048.56
2022-08-17T09:09:51.242Z,99051.56
2022-08-17T09:12:40.386Z,99043.47
2022-08-17T09:15:16.375Z,99044.41
2022-08-17T09:18:08.561Z,99054.84
2022-08-17T09:20:50.386Z,99069.53
2022-08-17T09:23:32.856Z,99058.16
2022-08-17T09:26:10.440Z,99044.59
2022-08-17T09:28:42.295Z,99044.94
2022-08-17T09:31:18.844Z,99041.19
2022-08-17T09:33:48.983Z,99039.16
2022-08-17T09:36:26.652Z,99045.59
2022-08-17T09:39:06.182Z,99055.75
2022-08-17T09:41:48.685Z,99061.28
2022-08-17T09:44:26.623Z,99060.28
2022-08-17T09:47:05.105Z,99073.97
2022-08-17T09:49:44.124Z,99070.72
2022-08-17T09:52:20.727Z,99074.13
2022-08-17T09:54:52.168Z,99070.66
2022-08-17T09:57:42.261Z,99056.03
2022-08-17T10:00:22.578Z,99058.72
2022-08-17T10:03:21.115Z,99070.03
2022-08-17T10:05:59.791Z,99067.69
2022-08-17T10:08:41.894Z,99071.31
2022-08-17T10:11:33.507Z,99075.09
2022-08-17T10:14:37.653Z,99078.50
2022-08-17T10:17:14.447Z,99072.97
2022-08-17T10:19:55.739Z,99063.97
2022-08-17T10:22:34.629Z,99068.31
2022-08-17T10:25:22.524Z,99069.34
2022-08-17T10:27:59.580Z,99080.38
2022-08-17T10:30:33.180Z,99084.06
2022-08-17T10:33:05.962Z,99091.47
2022-08-17T10:35:46.839Z,99096.72
2022-08-17T10:38:41.031Z,99099.56
2022-08-17T10:41:26.879Z,99102.75
2022-08-17T10:44:38.975Z,99097.91
2022-08-17T10:47:08.286Z,99095.38
2022-08-17T10:49:37.743Z,99098.56
2022-08-17T10:52:47.012Z,99096.47
2022-08-17T10:55:17.774Z,99099.88
2022-08-17T10:57:48.948Z,99109.41
2022-08-17T11:01:05.925Z,99115.19
2022-08-17T11:03:33.558Z,99121.38
2022-08-17T11:06:17.815Z,99116.78
2022-08-17T11:09:26.787Z,99111.66
2022-08-17T11:12:14.576Z,99116.34
2022-08-17T11:15:24.574Z,99118.22
2022-08-17T11:18:15.387Z,99121.59
2022-08-17T11:21:24.322Z,99135.50
2022-08-17T11:24:18.460Z,99148.69
2022-08-17T11:27:03.337Z,99144.91
2022-08-17T11:29:37.890Z,99148.13
2022-08-17T11:32:11.226Z,99142.00
2022-08-17T11:34:42.900Z,99150.06
2022-08-17T11:37:50.626Z,99148.97
2022-08-17T11:40:48.735Z,99154.19
2022-08-17T11:43:49.983Z,99140.38
2022-08-17T11:46:30.111Z,99149.81
2022-08-17T11:49:14.273Z,99168.28
2022-08-17T11:52:14.146Z,99173.81
2022-08-17T11:54:48.036Z,99177.22
2022-08-17T11:58:02.339Z,99173.50
2022-08-17T12:00:55.074Z,99158.06
2022-08-17T12:03:54.130Z,99165.69
2022-08-17T12:06:46.483Z,99175.53
2022-08-17T12:09:20.898Z,99175.88
2022-08-17T12:12:13.305Z,99175.41
2022-08-17T12:15:12.185Z,99169.59
2022-08-17T12:17:42.840Z,99162.38
2022-08-17T12:20:28.015Z,99144.91
2022-08-17T12:23:08.117Z,99146.44
2022-08-17T12:25:55.694Z,99128.84
2022-08-17T12:28:28.782Z,99131.31
2022-08-17T12:31:06.578Z,99133.56
2022-08-17T12:33:42.102Z,99134.94
2022-08-17T12:36:15.554Z,99131.69
2022-08-17T12:38:53.030Z,99139.41
2022-08-17T12:41:36.275Z,99125.09
2022-08-17T12:44:12.187Z,99126.56
2022-08-17T12:46:52.270Z,99112.91
2022-08-17T12:49:31.891Z,99107.16
2022-08-17T12:52:15.526Z,99101.53
2022-08-17T12:54:55.479Z,99086.34
2022-08-17T12:57:29.155Z,99082.19
2022-08-17T13:00:00.239Z,99073.00
2022-08-17T13:02:41.257Z,99071.13
2022-08-17T13:05:21.774Z,99055.53
2022-08-17T13:07:49.314Z,99056.63
2022-08-17T13:10:27.390Z,99046.63
2022-08-17T13:12:58.953Z,99037.13
2022-08-17T13:15:33.631Z,99036.19
2022-08-17T13:18:07.679Z,99041.91
2022-08-17T13:20:35.982Z,99025.50
2022-08-17T13:23:11.878Z,99028.44
2022-08-17T13:25:40.391Z,99027.41
2022-08-17T13:28:18.876Z,99020.16
2022-08-17T13:31:23.375Z,99019.13
2022-08-17T13:33:50.231Z,99025.50
2022-08-17T13:36:28.048Z,99039.00
2022-08-17T13:39:11.919Z,99026.38
2022-08-17T13:41:39.236Z,99024.69
2022-08-17T13:44:33.901Z,99024.31
2022-08-17T13:47:02.651Z,99025.81
2022-08-17T13:49:48.260Z,99024.31
2022-08-17T13:52:38.069Z,99024.31
2022-08-17T13:55:15.640Z,99026.81
2022-08-17T13:57:48.146Z,99025.28
2022-08-17T14:00:28.161Z,99031.88
2022-08-17T14:02:55.250Z,99025.06
2022-08-17T14:05:22.142Z,99023.53
2022-08-17T14:07:57.308Z,99021.22
2022-08-17T14:10:25.896Z,99022.84
2022-08-17T14:12:54.116Z,99015.19
2022-08-17T14:15:54.644Z,99005.13
2022-08-17T14:18:12.529Z,98990.66
2022-08-17T14:20:39.860Z,98989.13
2022-08-17T14:23:06.855Z,98994.19
2022-08-17T14:25:34.164Z,98985.50
2022-08-17T14:28:01.937Z,98987.13
2022-08-17T14:30:30.408Z,98978.72
2022-08-17T14:32:58.864Z,98984.06
2022-08-17T14:35:26.142Z,98976.78
2022-08-17T14:37:53.657Z,98967.00
2022-08-17T14:40:22.192Z,98976.28
2022-08-17T14:42:49.172Z,98982.84
2022-08-17T14:45:30.487Z,98981.47
2022-08-17T14:48:03.305Z,98979.44
2022-08-17T14:50:30.317Z,98983.28
2022-08-17T14:52:59.134Z,98983.41
2022-08-17T14:55:26.796Z,98980.72
2022-08-17T14:57:53.700Z,99001.09
2022-08-17T15:00:21.466Z,98989.31
2022-08-17T15:02:52.817Z,98992.59
2022-08-17T15:05:24.871Z,98996.50
2022-08-17T15:07:53.066Z,98983.00
2022-08-17T15:10:21.415Z,98985.44
2022-08-17T15:12:48.554Z,98975.06
2022-08-17T15:15:17.770Z,98979.03
2022-08-17T15:17:54.853Z,98978.78
2022-08-17T15:20:28.407Z,98975.06
2022-08-17T15:22:56.988Z,98974.72
2022-08-17T15:25:27.058Z,98979.28
2022-08-17T15:27:53.959Z,98986.28
2022-08-17T15:30:22.064Z,98987.78
2022-08-17T15:32:54.284Z,98972.44
2022-08-17T15:35:28.571Z,98972.44
2022-08-17T15:37:58.538Z,98972.25
2022-08-17T15:40:25.433Z,98969.81
2022-08-17T15:42:52.419Z,98962.72
2022-08-17T15:45:24.597Z,98971.81
2022-08-17T15:47:51.565Z,98964.06
2022-08-17T15:50:18.713Z,98973.59
2022-08-17T15:52:47.002Z,98971.66
2022-08-17T15:55:15.208Z,98965.53
2022-08-17T15:57:42.291Z,98955.69
2022-08-17T16:00:11.039Z,98962.75
2022-08-17T16:03:44.450Z,98961.72
2022-08-17T16:05:30.127Z,98957.44
2022-08-17T16:07:59.624Z,98959.50
2022-08-17T16:10:35.103Z,98955.09
2022-08-17T16:13:04.342Z,98960.28
2022-08-17T16:15:31.985Z,98956.25
2022-08-17T16:17:59.544Z,98961.00
2022-08-17T16:20:26.943Z,98954.88
2022-08-17T16:22:55.176Z,98947.16
2022-08-17T16:25:38.450Z,98939.03
2022-08-17T16:28:16.145Z,98944.84
2022-08-17T16:35:13.293Z,98947.22
2022-08-17T16:37:40.196Z,98943.56
2022-08-17T16:40:13.465Z,98935.31
2022-08-17T16:42:42.607Z,98935.47
2022-08-17T16:45:14.181Z,98941.88
2022-08-17T16:47:46.947Z,98936.84
2022-08-17T16:50:16.774Z,98931.72
2022-08-17T16:52:45.043Z,98936.50
2022-08-17T16:55:13.576Z,98934.75
2022-08-17T16:57:47.311Z,98944.50
2022-08-17T17:00:20.417Z,98940.31
2022-08-17T17:02:48.633Z,98942.78
2022-08-17T17:05:57.704Z,98935.78
2022-08-17T17:08:33.016Z,98937.06
2022-08-17T17:11:10.816Z,98938.69
2022-08-17T17:13:46.403Z,98932.25
2022-08-17T17:16:24.408Z,98919.50
2022-08-17T17:19:10.185Z,98928.34
2022-08-17T17:21:46.932Z,98931.91
2022-08-17T17:24:23.583Z,98926.22
2022-08-17T17:27:20.971Z,98923.41
2022-08-17T17:30:07.779Z,98922.72
2022-08-17T17:32:40.592Z,98932.56
2022-08-17T17:35:16.259Z,98931.16
2022-08-17T17:37:46.263Z,98926.16
2022-08-17T17:40:21.299Z,98925.34
2022-08-17T17:42:51.229Z,98915.22
2022-08-17T17:45:26.476Z,98912.63
2022-08-17T17:47:53.738Z,98914.19
2022-08-17T17:50:38.716Z,98907.16
2022-08-17T17:53:18.922Z,98912.16
2022-08-17T17:56:19.638Z,98916.44
2022-08-17T17:59:12.860Z,98907.25
2022-08-17T18:01:55.294Z,98900.75
2022-08-17T18:04:32.668Z,98896.06
2022-08-17T18:07:17.489Z,98899.22
2022-08-17T18:10:03.859Z,98902.16
2022-08-17T18:12:43.322Z,98908.41
2022-08-17T18:15:35.595Z,98914.19
2022-08-17T18:18:34.845Z,98899.88
2022-08-17T18:21:08.199Z,98904.84
2022-08-17T18:23:35.150Z,98908.16
2022-08-17T18:26:02.386Z,98907.22
2022-08-17T18:28:36.254Z,98905.00
2022-08-17T18:31:15.380Z,98912.84
2022-08-17T18:33:48.199Z,98912.69
2022-08-17T18:36:28.421Z,98911.34
2022-08-17T18:39:13.928Z,98907.28
2022-08-17T18:41:43.076Z,98904.25
2022-08-17T18:44:24.091Z,98898.81
2022-08-17T18:47:12.073Z,98911.94
2022-08-17T18:49:41.723Z,98917.69
2022-08-17T18:52:15.245Z,98921.53
2022-08-17T18:55:05.079Z,98929.31
2022-08-17T18:57:35.590Z,98929.53
2022-08-17T19:00:13.395Z,98934.28
2022-08-17T19:02:57.240Z,98929.34
2022-08-17T19:05:36.757Z,98935.34
2022-08-17T19:08:23.311Z,98933.34
2022-08-17T19:10:55.381Z,98930.31
2022-08-17T19:13:31.126Z,98940.78
2022-08-17T19:16:14.104Z,98945.13
2022-08-17T19:18:48.707Z,98944.56
2022-08-17T19:21:23.658Z,98947.88
2022-08-17T19:23:59.226Z,98953.88
2022-08-17T19:26:54.502Z,98950.41
2022-08-17T19:29:34.260Z,98949.38
2022-08-17T19:32:02.761Z,98943.03
2022-08-17T19:34:34.701Z,98940.44
2022-08-17T19:37:12.404Z,98945.13
2022-08-17T19:39:53.318Z,98942.72
2022-08-17T19:42:35.444Z,98937.84
2022-08-17T19:45:15.666Z,98937.88
2022-08-17T19:47:57.174Z,98937.50
2022-08-17T19:50:36.936Z,98938.34
2022-08-17T19:53:19.110Z,98936.72
2022-08-17T19:55:59.725Z,98934.25
2022-08-17T19:58:47.714Z,98933.44
2022-08-17T20:01:29.837Z,98932.81
2022-08-17T20:04:11.039Z,98941.19
2022-08-17T20:06:43.742Z,98936.69
2022-08-17T20:09:29.626Z,98939.94
2022-08-17T20:12:08.870Z,98940.56
2022-08-17T20:14:41.824Z,98937.69
2022-08-17T20:17:25.804Z,98930.34
2022-08-17T20:20:08.745Z,98941.78
2022-08-17T20:22:54.766Z,98943.25
2022-08-17T20:25:35.706Z,98956.94
2022-08-17T20:28:18.683Z,98960.41
2022-08-17T20:30:45.946Z,98954.31
2022-08-17T20:33:25.814Z,98957.34
2022-08-17T20:36:16.379Z,98961.25
2022-08-17T20:38:49.018Z,98952.88
2022-08-17T20:41:19.865Z,98949.53
2022-08-17T20:44:04.161Z,98950.81
2022-08-17T20:46:55.739Z,98948.38
2022-08-17T20:49:45.534Z,98961.22
2022-08-17T20:52:15.087Z,98972.00
2022-08-17T20:54:48.244Z,98962.25
2022-08-17T20:57:47.463Z,98963.31
2022-08-17T21:00:43.662Z,98968.22
2022-08-17T21:03:51.862Z,98974.25
2022-08-17T21:06:25.037Z,98973.63
2022-08-17T21:08:57.718Z,98979.13
2022-08-17T21:11:58.225Z,98979.97
2022-08-17T21:14:57.747Z,98987.31
2022-08-17T21:17:41.397Z,98983.88
2022-08-17T21:20:33.626Z,98998.09
2022-08-17T21:23:35.339Z,98999.56
2022-08-17T21:26:30.171Z,98996.56
2022-08-17T21:29:29.861Z,99004.72
2022-08-17T21:32:19.299Z,99007.19
2022-08-17T21:35:24.951Z,99018.66
2022-08-17T21:38:01.318Z,99020.66
2022-08-17T21:40:32.508Z,99012.50
2022-08-17T21:43:17.311Z,99021.47
2022-08-17T21:45:57.006Z,99023.94
2022-08-17T21:48:28.111Z,99032.50
2022-08-17T21:51:08.140Z,99028.00
2022-08-17T21:53:44.200Z,99035.72
2022-08-17T21:56:22.019Z,99039.41
2022-08-17T21:58:59.613Z,99033.69
2022-08-17T22:01:30.657Z,99029.56
2022-08-17T22:04:05.012Z,99019.59
2022-08-17T22:06:38.696Z,99022.47
2022-08-17T22:09:14.431Z,99028.00
2022-08-17T22:11:59.676Z,99037.81
2022-08-17T22:14:52.108Z,99030.31
2022-08-17T22:17:22.237Z,99025.84
2022-08-17T22:19:54.955Z,99028.13
2022-08-17T22:22:34.131Z,99038.94
2022-08-17T22:25:06.321Z,99044.88
2022-08-17T22:27:55.177Z,99049.28
2022-08-17T22:30:34.434Z,99048.44
2022-08-17T22:33:39.490Z,99061.06
2022-08-17T22:36:26.853Z,99076.47
2022-08-17T22:38:59.166Z,99086.44
2022-08-17T22:41:52.631Z,99101.03
2022-08-17T22:44:28.372Z,99119.75
2022-08-17T22:47:01.871Z,99120.19
2022-08-17T22:49:35.222Z,99141.31
2022-08-17T22:52:16.666Z,99142.81
2022-08-17T22:54:48.216Z,99155.16
2022-08-17T22:57:18.661Z,99172.81
2022-08-17T22:59:50.452Z,99177.75
2022-08-17T23:02:25.932Z,99183.66
2022-08-17T23:05:19.787Z,99199.03
2022-08-17T23:07:50.906Z,99194.31
2022-08-17T23:10:19.782Z,99195.09
2022-08-17T23:12:46.700Z,99190.22
2022-08-17T23:15:18.023Z,99185.16
2022-08-17T23:17:45.891Z,99187.16
2022-08-17T23:20:16.235Z,99183.53
2022-08-17T23:22:52.799Z,99183.28
2022-08-17T23:25:28.156Z,99194.34
2022-08-17T23:27:56.880Z,99187.84
2022-08-17T23:30:23.986Z,99182.19
2022-08-17T23:32:53.863Z,99182.63
2022-08-17T23:35:39.996Z,99191.00
2022-08-17T23:38:11.480Z,99195.72
2022-08-17T23:40:40.457Z,99192.81
2022-08-17T23:43:15.380Z,99200.50
2022-08-17T23:45:53.174Z,99199.28
2022-08-17T23:48:36.248Z,99202.13
2022-08-17T23:51:11.122Z,99213.56
2022-08-17T23:53:44.186Z,99211.56
2022-08-17T23:56:11.780Z,99214.88
2022-08-17T23:58:40.606Z,99204.56
